sensor_id;sensor_type;location;lat;lon;timestamp;P1;durP1;ratioP1;P2;durP2;ratioP2
22677;SDS011;26259;50.214;18.620;2022-07-17T09:10:57;4.10;;;1.80;;
22677;SDS011;26259;50.214;18.620;2022-07-17T09:13:24;5.10;;;1.37;;
22677;SDS011;26259;50.214;18.620;2022-07-17T09:15:52;4.97;;;1.37;;
22677;SDS011;26259;50.214;18.620;2022-07-17T09:18:19;4.73;;;1.57;;
22677;SDS011;26259;50.214;18.620;2022-07-17T09:20:54;7.43;;;1.53;;
22677;SDS011;26259;50.214;18.620;2022-07-17T09:23:23;3.53;;;1.20;;
22677;SDS011;26259;50.214;18.620;2022-07-17T09:25:51;2.87;;;1.00;;
22677;SDS011;26259;50.214;18.620;2022-07-17T09:28:18;5.73;;;1.07;;
22677;SDS011;26259;50.214;18.620;2022-07-17T09:30:47;3.93;;;1.27;;
22677;SDS011;26259;50.214;18.620;2022-07-17T09:33:17;4.17;;;1.30;;
22677;SDS011;26259;50.214;18.620;2022-07-17T09:35:45;4.07;;;1.37;;
22677;SDS011;26259;50.214;18.620;2022-07-17T09:38:12;4.67;;;1.07;;
22677;SDS011;26259;50.214;18.620;2022-07-17T09:40:39;5.20;;;1.13;;
22677;SDS011;26259;50.214;18.620;2022-07-17T09:43:23;1.93;;;1.07;;
22677;SDS011;26259;50.214;18.620;2022-07-17T09:45:48;4.33;;;1.20;;
22677;SDS011;26259;50.214;18.620;2022-07-17T09:48:14;3.33;;;1.00;;
22677;SDS011;26259;50.214;18.620;2022-07-17T09:50:40;2.97;;;1.00;;
22677;SDS011;26259;50.214;18.620;2022-07-17T09:53:07;6.27;;;1.43;;
22677;SDS011;26259;50.214;18.620;2022-07-17T09:55:35;6.17;;;1.40;;
22677;SDS011;26259;50.214;18.620;2022-07-17T09:58:02;5.07;;;1.17;;
22677;SDS011;26259;50.214;18.620;2022-07-17T10:00:28;4.53;;;1.20;;
22677;SDS011;26259;50.214;18.620;2022-07-17T10:02:54;4.23;;;1.37;;
22677;SDS011;26259;50.214;18.620;2022-07-17T10:05:20;7.77;;;2.53;;
22677;SDS011;26259;50.214;18.620;2022-07-17T10:07:47;6.40;;;2.50;;
22677;SDS011;26259;50.214;18.620;2022-07-17T10:10:14;10.20;;;3.53;;
22677;SDS011;26259;50.214;18.620;2022-07-17T10:12:45;5.73;;;1.20;;
22677;SDS011;26259;50.214;18.620;2022-07-17T10:15:13;2.90;;;1.10;;
22677;SDS011;26259;50.214;18.620;2022-07-17T10:17:40;5.63;;;0.83;;
22677;SDS011;26259;50.214;18.620;2022-07-17T10:20:05;5.77;;;1.30;;
22677;SDS011;26259;50.214;18.620;2022-07-17T10:22:41;12.13;;;2.13;;
22677;SDS011;26259;50.214;18.620;2022-07-17T10:25:12;7.40;;;1.20;;
22677;SDS011;26259;50.214;18.620;2022-07-17T10:27:45;3.10;;;0.93;;
22677;SDS011;26259;50.214;18.620;2022-07-17T10:30:23;3.03;;;1.00;;
22677;SDS011;26259;50.214;18.620;2022-07-17T10:32:58;3.00;;;1.23;;
22677;SDS011;26259;50.214;18.620;2022-07-17T10:35:27;2.87;;;1.00;;
22677;SDS011;26259;50.214;18.620;2022-07-17T10:37:57;6.53;;;1.17;;
22677;SDS011;26259;50.214;18.620;2022-07-17T10:40:34;5.80;;;1.10;;
22677;SDS011;26259;50.214;18.620;2022-07-17T10:43:03;2.17;;;1.10;;
22677;SDS011;26259;50.214;18.620;2022-07-17T10:45:43;8.70;;;1.03;;
22677;SDS011;26259;50.214;18.620;2022-07-17T10:50:50;5.60;;;0.90;;
22677;SDS011;26259;50.214;18.620;2022-07-17T10:53:21;2.57;;;0.90;;
22677;SDS011;26259;50.214;18.620;2022-07-17T10:55:54;4.50;;;0.90;;
22677;SDS011;26259;50.214;18.620;2022-07-17T11:03:40;3.87;;;1.10;;
22677;SDS011;26259;50.214;18.620;2022-07-17T11:06:11;3.17;;;0.80;;
22677;SDS011;26259;50.214;18.620;2022-07-17T11:08:42;7.63;;;1.50;;
22677;SDS011;26259;50.214;18.620;2022-07-17T11:11:12;4.10;;;0.87;;
22677;SDS011;26259;50.214;18.620;2022-07-17T11:13:38;2.97;;;1.10;;
22677;SDS011;26259;50.214;18.620;2022-07-17T11:16:04;2.47;;;0.83;;
22677;SDS011;26259;50.214;18.620;2022-07-17T11:18:30;3.90;;;1.37;;
22677;SDS011;26259;50.214;18.620;2022-07-17T11:20:56;3.23;;;1.20;;
22677;SDS011;26259;50.214;18.620;2022-07-17T11:23:25;4.00;;;0.93;;
22677;SDS011;26259;50.214;18.620;2022-07-17T11:26:00;3.33;;;0.90;;
22677;SDS011;26259;50.214;18.620;2022-07-17T11:28:32;3.57;;;0.80;;
22677;SDS011;26259;50.214;18.620;2022-07-17T11:31:03;9.10;;;1.20;;
22677;SDS011;26259;50.214;18.620;2022-07-17T11:33:45;6.10;;;1.37;;
22677;SDS011;26259;50.214;18.620;2022-07-17T11:36:25;4.03;;;0.97;;
22677;SDS011;26259;50.214;18.620;2022-07-17T11:38:51;1.43;;;0.83;;
22677;SDS011;26259;50.214;18.620;2022-07-17T11:41:18;4.33;;;0.87;;
22677;SDS011;26259;50.214;18.620;2022-07-17T11:43:44;3.80;;;1.10;;
22677;SDS011;26259;50.214;18.620;2022-07-17T11:46:11;6.83;;;1.60;;
22677;SDS011;26259;50.214;18.620;2022-07-17T11:48:39;3.00;;;0.90;;
22677;SDS011;26259;50.214;18.620;2022-07-17T11:51:06;3.43;;;1.10;;
22677;SDS011;26259;50.214;18.620;2022-07-17T11:53:35;3.03;;;0.80;;
22677;SDS011;26259;50.214;18.620;2022-07-17T11:56:03;3.20;;;0.90;;
22677;SDS011;26259;50.214;18.620;2022-07-17T11:58:40;4.63;;;0.97;;
22677;SDS011;26259;50.214;18.620;2022-07-17T12:01:07;3.80;;;1.37;;
22677;SDS011;26259;50.214;18.620;2022-07-17T12:03:32;4.60;;;1.00;;
22677;SDS011;26259;50.214;18.620;2022-07-17T12:05:58;1.90;;;0.63;;
22677;SDS011;26259;50.214;18.620;2022-07-17T12:08:24;2.83;;;0.80;;
22677;SDS011;26259;50.214;18.620;2022-07-17T12:10:59;5.13;;;1.50;;
22677;SDS011;26259;50.214;18.620;2022-07-17T12:13:36;4.10;;;0.67;;
22677;SDS011;26259;50.214;18.620;2022-07-17T12:16:27;3.07;;;0.83;;
22677;SDS011;26259;50.214;18.620;2022-07-17T12:19:01;3.07;;;0.70;;
22677;SDS011;26259;50.214;18.620;2022-07-17T12:24:30;3.03;;;0.90;;
22677;SDS011;26259;50.214;18.620;2022-07-17T12:27:08;1.57;;;0.70;;
22677;SDS011;26259;50.214;18.620;2022-07-17T12:29:38;5.10;;;1.30;;
22677;SDS011;26259;50.214;18.620;2022-07-17T12:32:09;2.83;;;0.60;;
22677;SDS011;26259;50.214;18.620;2022-07-17T12:34:37;5.37;;;0.93;;
22677;SDS011;26259;50.214;18.620;2022-07-17T12:37:10;3.20;;;0.97;;
22677;SDS011;26259;50.214;18.620;2022-07-17T12:39:36;1.47;;;0.73;;
22677;SDS011;26259;50.214;18.620;2022-07-17T12:42:02;3.10;;;1.10;;
22677;SDS011;26259;50.214;18.620;2022-07-17T12:44:28;3.20;;;1.07;;
22677;SDS011;26259;50.214;18.620;2022-07-17T12:46:53;4.30;;;1.33;;
22677;SDS011;26259;50.214;18.620;2022-07-17T12:49:19;2.17;;;0.93;;
22677;SDS011;26259;50.214;18.620;2022-07-17T12:51:45;1.90;;;0.60;;
22677;SDS011;26259;50.214;18.620;2022-07-17T12:54:11;3.23;;;1.40;;
22677;SDS011;26259;50.214;18.620;2022-07-17T12:56:37;3.67;;;1.87;;
22677;SDS011;26259;50.214;18.620;2022-07-17T12:59:02;2.67;;;0.60;;
22677;SDS011;26259;50.214;18.620;2022-07-17T13:01:28;4.37;;;0.97;;
22677;SDS011;26259;50.214;18.620;2022-07-17T13:03:54;6.23;;;1.17;;
22677;SDS011;26259;50.214;18.620;2022-07-17T13:06:20;2.80;;;0.87;;
22677;SDS011;26259;50.214;18.620;2022-07-17T13:08:46;3.93;;;0.80;;
22677;SDS011;26259;50.214;18.620;2022-07-17T13:11:11;2.13;;;0.70;;
22677;SDS011;26259;50.214;18.620;2022-07-17T13:13:37;2.37;;;0.87;;
22677;SDS011;26259;50.214;18.620;2022-07-17T13:16:03;2.37;;;0.80;;
22677;SDS011;26259;50.214;18.620;2022-07-17T13:18:29;3.30;;;0.50;;
22677;SDS011;26259;50.214;18.620;2022-07-17T13:20:55;4.23;;;0.80;;
22677;SDS011;26259;50.214;18.620;2022-07-17T13:23:20;1.77;;;0.73;;
22677;SDS011;26259;50.214;18.620;2022-07-17T13:25:46;4.20;;;0.80;;
22677;SDS011;26259;50.214;18.620;2022-07-17T13:28:11;11.93;;;1.03;;
22677;SDS011;26259;50.214;18.620;2022-07-17T13:30:37;4.13;;;0.80;;
22677;SDS011;26259;50.214;18.620;2022-07-17T13:33:03;3.53;;;0.93;;
22677;SDS011;26259;50.214;18.620;2022-07-17T13:35:29;2.43;;;1.10;;
22677;SDS011;26259;50.214;18.620;2022-07-17T13:37:55;3.90;;;1.00;;
22677;SDS011;26259;50.214;18.620;2022-07-17T13:40:22;4.17;;;0.90;;
22677;SDS011;26259;50.214;18.620;2022-07-17T13:42:49;2.63;;;0.63;;
22677;SDS011;26259;50.214;18.620;2022-07-17T13:45:15;1.27;;;0.70;;
22677;SDS011;26259;50.214;18.620;2022-07-17T13:47:41;3.40;;;0.93;;
22677;SDS011;26259;50.214;18.620;2022-07-17T13:50:06;2.43;;;0.70;;
22677;SDS011;26259;50.214;18.620;2022-07-17T13:52:32;4.10;;;0.80;;
22677;SDS011;26259;50.214;18.620;2022-07-17T13:54:58;3.10;;;0.70;;
22677;SDS011;26259;50.214;18.620;2022-07-17T13:57:24;1.80;;;0.63;;
22677;SDS011;26259;50.214;18.620;2022-07-17T13:59:50;3.20;;;1.10;;
22677;SDS011;26259;50.214;18.620;2022-07-17T14:02:16;1.43;;;0.73;;
22677;SDS011;26259;50.214;18.620;2022-07-17T14:04:41;4.57;;;0.83;;
22677;SDS011;26259;50.214;18.620;2022-07-17T14:07:07;4.40;;;1.20;;
22677;SDS011;26259;50.214;18.620;2022-07-17T14:09:33;1.80;;;0.87;;
22677;SDS011;26259;50.214;18.620;2022-07-17T14:11:59;2.17;;;0.53;;
22677;SDS011;26259;50.214;18.620;2022-07-17T14:14:24;2.67;;;0.63;;
22677;SDS011;26259;50.214;18.620;2022-07-17T14:16:50;2.93;;;0.60;;
22677;SDS011;26259;50.214;18.620;2022-07-17T14:19:16;3.17;;;0.97;;
22677;SDS011;26259;50.214;18.620;2022-07-17T14:21:41;3.43;;;0.80;;
22677;SDS011;26259;50.214;18.620;2022-07-17T14:24:07;3.30;;;0.80;;
22677;SDS011;26259;50.214;18.620;2022-07-17T14:26:34;2.27;;;0.80;;
22677;SDS011;26259;50.214;18.620;2022-07-17T14:29:00;2.80;;;0.70;;
22677;SDS011;26259;50.214;18.620;2022-07-17T14:31:27;1.27;;;0.83;;
22677;SDS011;26259;50.214;18.620;2022-07-17T14:33:52;3.43;;;0.97;;
22677;SDS011;26259;50.214;18.620;2022-07-17T14:36:18;3.00;;;0.60;;
22677;SDS011;26259;50.214;18.620;2022-07-17T14:38:44;3.50;;;0.90;;
22677;SDS011;26259;50.214;18.620;2022-07-17T14:41:10;1.53;;;0.80;;
22677;SDS011;26259;50.214;18.620;2022-07-17T14:43:36;1.13;;;0.67;;
22677;SDS011;26259;50.214;18.620;2022-07-17T14:46:01;3.07;;;0.73;;
22677;SDS011;26259;50.214;18.620;2022-07-17T14:48:27;1.70;;;0.77;;
22677;SDS011;26259;50.214;18.620;2022-07-17T14:50:52;2.50;;;0.83;;
22677;SDS011;26259;50.214;18.620;2022-07-17T14:53:18;5.93;;;0.90;;
22677;SDS011;26259;50.214;18.620;2022-07-17T14:55:44;4.30;;;1.50;;
22677;SDS011;26259;50.214;18.620;2022-07-17T14:58:09;5.50;;;1.33;;
22677;SDS011;26259;50.214;18.620;2022-07-17T15:00:35;1.70;;;0.80;;
22677;SDS011;26259;50.214;18.620;2022-07-17T15:03:01;1.30;;;0.90;;
22677;SDS011;26259;50.214;18.620;2022-07-17T15:05:26;1.87;;;0.70;;
22677;SDS011;26259;50.214;18.620;2022-07-17T15:07:52;2.67;;;0.70;;
22677;SDS011;26259;50.214;18.620;2022-07-17T15:10:17;1.23;;;0.60;;
22677;SDS011;26259;50.214;18.620;2022-07-17T15:12:43;1.50;;;0.40;;
22677;SDS011;26259;50.214;18.620;2022-07-17T15:15:08;1.90;;;0.50;;
22677;SDS011;26259;50.214;18.620;2022-07-17T15:17:34;4.03;;;0.80;;
22677;SDS011;26259;50.214;18.620;2022-07-17T15:20:00;7.63;;;1.00;;
22677;SDS011;26259;50.214;18.620;2022-07-17T15:22:26;1.57;;;0.50;;
22677;SDS011;26259;50.214;18.620;2022-07-17T15:24:52;4.13;;;0.60;;
22677;SDS011;26259;50.214;18.620;2022-07-17T15:27:17;4.83;;;0.60;;
22677;SDS011;26259;50.214;18.620;2022-07-17T15:29:43;3.40;;;0.60;;
22677;SDS011;26259;50.214;18.620;2022-07-17T15:32:08;2.97;;;0.80;;
22677;SDS011;26259;50.214;18.620;2022-07-17T15:34:34;2.23;;;0.70;;
22677;SDS011;26259;50.214;18.620;2022-07-17T15:37:02;3.47;;;0.70;;
22677;SDS011;26259;50.214;18.620;2022-07-17T15:39:28;1.80;;;0.93;;
22677;SDS011;26259;50.214;18.620;2022-07-17T15:41:54;1.60;;;0.57;;
22677;SDS011;26259;50.214;18.620;2022-07-17T15:44:20;3.37;;;0.80;;
22677;SDS011;26259;50.214;18.620;2022-07-17T15:46:46;9.67;;;0.80;;
22677;SDS011;26259;50.214;18.620;2022-07-17T15:49:11;2.50;;;0.60;;
22677;SDS011;26259;50.214;18.620;2022-07-17T15:51:37;4.67;;;0.70;;
22677;SDS011;26259;50.214;18.620;2022-07-17T15:54:03;4.27;;;1.00;;
22677;SDS011;26259;50.214;18.620;2022-07-17T15:56:30;3.30;;;0.80;;
22677;SDS011;26259;50.214;18.620;2022-07-17T15:58:56;1.17;;;0.53;;
22677;SDS011;26259;50.214;18.620;2022-07-17T16:01:22;5.93;;;0.97;;
22677;SDS011;26259;50.214;18.620;2022-07-17T16:03:47;2.67;;;0.87;;
22677;SDS011;26259;50.214;18.620;2022-07-17T16:06:13;6.73;;;1.20;;
22677;SDS011;26259;50.214;18.620;2022-07-17T16:08:38;6.10;;;0.80;;
22677;SDS011;26259;50.214;18.620;2022-07-17T16:11:05;2.43;;;0.97;;
22677;SDS011;26259;50.214;18.620;2022-07-17T16:13:30;1.80;;;0.90;;
22677;SDS011;26259;50.214;18.620;2022-07-17T16:15:56;1.63;;;1.13;;
22677;SDS011;26259;50.214;18.620;2022-07-17T16:18:22;3.10;;;0.90;;
22677;SDS011;26259;50.214;18.620;2022-07-17T16:20:48;2.80;;;0.87;;
22677;SDS011;26259;50.214;18.620;2022-07-17T16:23:14;3.90;;;0.90;;
22677;SDS011;26259;50.214;18.620;2022-07-17T16:25:40;2.40;;;0.90;;
22677;SDS011;26259;50.214;18.620;2022-07-17T16:28:06;3.20;;;0.87;;
22677;SDS011;26259;50.214;18.620;2022-07-17T16:30:32;3.33;;;0.80;;
22677;SDS011;26259;50.214;18.620;2022-07-17T16:32:57;5.47;;;1.00;;
22677;SDS011;26259;50.214;18.620;2022-07-17T16:35:23;1.60;;;1.00;;
22677;SDS011;26259;50.214;18.620;2022-07-17T16:37:49;2.95;;;0.95;;
22677;SDS011;26259;50.214;18.620;2022-07-17T16:40:14;2.75;;;0.90;;
22677;SDS011;26259;50.214;18.620;2022-07-17T16:42:40;1.30;;;0.82;;
22677;SDS011;26259;50.214;18.620;2022-07-17T16:45:06;1.55;;;0.88;;
22677;SDS011;26259;50.214;18.620;2022-07-17T16:47:32;3.75;;;0.95;;
22677;SDS011;26259;50.214;18.620;2022-07-17T16:49:58;6.03;;;5.18;;
22677;SDS011;26259;50.214;18.620;2022-07-17T16:52:23;2.88;;;0.95;;
22677;SDS011;26259;50.214;18.620;2022-07-17T16:54:49;1.25;;;0.68;;
22677;SDS011;26259;50.214;18.620;2022-07-17T16:57:15;2.53;;;0.85;;
22677;SDS011;26259;50.214;18.620;2022-07-17T16:59:41;2.13;;;1.00;;
22677;SDS011;26259;50.214;18.620;2022-07-17T17:02:07;4.88;;;1.17;;
22677;SDS011;26259;50.214;18.620;2022-07-17T17:04:33;4.55;;;0.85;;
22677;SDS011;26259;50.214;18.620;2022-07-17T17:06:59;3.10;;;1.20;;
22677;SDS011;26259;50.214;18.620;2022-07-17T17:09:24;2.40;;;0.82;;
22677;SDS011;26259;50.214;18.620;2022-07-17T17:11:50;4.30;;;0.90;;
22677;SDS011;26259;50.214;18.620;2022-07-17T17:14:16;2.20;;;1.25;;
22677;SDS011;26259;50.214;18.620;2022-07-17T17:16:41;3.25;;;0.90;;
22677;SDS011;26259;50.214;18.620;2022-07-17T17:19:07;3.25;;;0.90;;
22677;SDS011;26259;50.214;18.620;2022-07-17T17:21:33;3.92;;;1.58;;
22677;SDS011;26259;50.214;18.620;2022-07-17T17:23:59;2.17;;;1.08;;
22677;SDS011;26259;50.214;18.620;2022-07-17T17:26:25;3.53;;;1.08;;
22677;SDS011;26259;50.214;18.620;2022-07-17T17:28:50;4.55;;;1.30;;
22677;SDS011;26259;50.214;18.620;2022-07-17T17:31:17;4.57;;;1.83;;
22677;SDS011;26259;50.214;18.620;2022-07-17T17:33:43;2.45;;;1.20;;
22677;SDS011;26259;50.214;18.620;2022-07-17T17:36:09;1.23;;;0.98;;
22677;SDS011;26259;50.214;18.620;2022-07-17T17:38:34;3.40;;;1.23;;
22677;SDS011;26259;50.214;18.620;2022-07-17T17:41:00;3.88;;;1.60;;
22677;SDS011;26259;50.214;18.620;2022-07-17T17:43:27;6.22;;;2.25;;
22677;SDS011;26259;50.214;18.620;2022-07-17T17:45:55;4.63;;;1.23;;
22677;SDS011;26259;50.214;18.620;2022-07-17T17:48:23;3.75;;;1.67;;
22677;SDS011;26259;50.214;18.620;2022-07-17T17:50:49;5.90;;;1.83;;
22677;SDS011;26259;50.214;18.620;2022-07-17T17:53:15;3.63;;;1.52;;
22677;SDS011;26259;50.214;18.620;2022-07-17T17:55:41;5.53;;;1.42;;
22677;SDS011;26259;50.214;18.620;2022-07-17T17:58:07;6.43;;;1.50;;
22677;SDS011;26259;50.214;18.620;2022-07-17T18:00:33;2.47;;;1.05;;
22677;SDS011;26259;50.214;18.620;2022-07-17T18:02:59;3.78;;;1.10;;
22677;SDS011;26259;50.214;18.620;2022-07-17T18:05:25;5.03;;;1.02;;
22677;SDS011;26259;50.214;18.620;2022-07-17T18:07:50;4.65;;;1.17;;
22677;SDS011;26259;50.214;18.620;2022-07-17T18:10:16;2.80;;;1.00;;
22677;SDS011;26259;50.214;18.620;2022-07-17T18:12:43;3.08;;;1.08;;
22677;SDS011;26259;50.214;18.620;2022-07-17T18:15:08;3.07;;;1.17;;
22677;SDS011;26259;50.214;18.620;2022-07-17T18:17:35;2.93;;;1.10;;
22677;SDS011;26259;50.214;18.620;2022-07-17T18:20:01;4.67;;;1.23;;
22677;SDS011;26259;50.214;18.620;2022-07-17T18:22:28;3.20;;;1.30;;
22677;SDS011;26259;50.214;18.620;2022-07-17T18:24:54;4.20;;;1.00;;
22677;SDS011;26259;50.214;18.620;2022-07-17T18:27:20;2.63;;;1.13;;
22677;SDS011;26259;50.214;18.620;2022-07-17T18:29:45;4.87;;;0.90;;
22677;SDS011;26259;50.214;18.620;2022-07-17T18:32:11;2.87;;;0.97;;
22677;SDS011;26259;50.214;18.620;2022-07-17T18:34:36;3.47;;;1.30;;
22677;SDS011;26259;50.214;18.620;2022-07-17T18:37:02;4.00;;;1.13;;
22677;SDS011;26259;50.214;18.620;2022-07-17T18:39:27;2.63;;;1.27;;
22677;SDS011;26259;50.214;18.620;2022-07-17T18:41:54;2.53;;;1.20;;
22677;SDS011;26259;50.214;18.620;2022-07-17T18:44:20;2.63;;;1.00;;
22677;SDS011;26259;50.214;18.620;2022-07-17T18:46:45;3.30;;;1.03;;
22677;SDS011;26259;50.214;18.620;2022-07-17T18:49:11;2.80;;;1.37;;
22677;SDS011;26259;50.214;18.620;2022-07-17T18:51:37;6.57;;;1.50;;
22677;SDS011;26259;50.214;18.620;2022-07-17T18:54:02;2.27;;;1.67;;
22677;SDS011;26259;50.214;18.620;2022-07-17T18:56:28;5.80;;;1.60;;
22677;SDS011;26259;50.214;18.620;2022-07-17T18:58:53;12.43;;;1.83;;
22677;SDS011;26259;50.214;18.620;2022-07-17T19:01:19;3.10;;;1.63;;
22677;SDS011;26259;50.214;18.620;2022-07-17T19:03:45;2.13;;;1.30;;
22677;SDS011;26259;50.214;18.620;2022-07-17T19:06:10;1.93;;;1.27;;
22677;SDS011;26259;50.214;18.620;2022-07-17T19:08:36;5.37;;;1.73;;
22677;SDS011;26259;50.214;18.620;2022-07-17T19:11:03;2.37;;;1.30;;
22677;SDS011;26259;50.214;18.620;2022-07-17T19:13:29;4.40;;;1.63;;
22677;SDS011;26259;50.214;18.620;2022-07-17T19:15:55;2.73;;;1.63;;
22677;SDS011;26259;50.214;18.620;2022-07-17T19:18:21;3.97;;;1.77;;
22677;SDS011;26259;50.214;18.620;2022-07-17T19:20:48;4.97;;;1.63;;
22677;SDS011;26259;50.214;18.620;2022-07-17T19:23:14;4.73;;;1.63;;
22677;SDS011;26259;50.214;18.620;2022-07-17T19:25:39;5.20;;;1.50;;
22677;SDS011;26259;50.214;18.620;2022-07-17T19:28:05;5.73;;;1.97;;
22677;SDS011;26259;50.214;18.620;2022-07-17T19:30:32;5.17;;;1.83;;
22677;SDS011;26259;50.214;18.620;2022-07-17T19:32:57;6.47;;;1.60;;
22677;SDS011;26259;50.214;18.620;2022-07-17T19:35:23;4.80;;;1.90;;
22677;SDS011;26259;50.214;18.620;2022-07-17T19:37:49;7.43;;;1.70;;
22677;SDS011;26259;50.214;18.620;2022-07-17T19:40:15;3.63;;;1.70;;
22677;SDS011;26259;50.214;18.620;2022-07-17T19:42:42;3.00;;;1.60;;
22677;SDS011;26259;50.214;18.620;2022-07-17T19:45:08;3.33;;;1.67;;
22677;SDS011;26259;50.214;18.620;2022-07-17T19:47:34;10.60;;;1.70;;
22677;SDS011;26259;50.214;18.620;2022-07-17T19:50:00;4.47;;;1.80;;
22677;SDS011;26259;50.214;18.620;2022-07-17T19:52:26;4.20;;;1.93;;
22677;SDS011;26259;50.214;18.620;2022-07-17T19:54:51;4.43;;;2.40;;
22677;SDS011;26259;50.214;18.620;2022-07-17T19:57:18;4.00;;;2.40;;
22677;SDS011;26259;50.214;18.620;2022-07-17T19:59:44;7.23;;;2.33;;
22677;SDS011;26259;50.214;18.620;2022-07-17T20:02:10;5.30;;;2.00;;
22677;SDS011;26259;50.214;18.620;2022-07-17T20:04:35;2.50;;;1.80;;
22677;SDS011;26259;50.214;18.620;2022-07-17T20:07:02;6.20;;;3.07;;
22677;SDS011;26259;50.214;18.620;2022-07-17T20:09:28;4.20;;;2.20;;
22677;SDS011;26259;50.214;18.620;2022-07-17T20:11:55;4.57;;;2.17;;
22677;SDS011;26259;50.214;18.620;2022-07-17T20:14:20;6.60;;;2.60;;
22677;SDS011;26259;50.214;18.620;2022-07-17T20:16:46;4.43;;;2.17;;
22677;SDS011;26259;50.214;18.620;2022-07-17T20:19:12;3.23;;;1.90;;
22677;SDS011;26259;50.214;18.620;2022-07-17T20:21:38;4.60;;;2.70;;
22677;SDS011;26259;50.214;18.620;2022-07-17T20:24:04;6.13;;;2.13;;
22677;SDS011;26259;50.214;18.620;2022-07-17T20:26:30;4.97;;;2.00;;
22677;SDS011;26259;50.214;18.620;2022-07-17T20:28:55;5.37;;;2.17;;
22677;SDS011;26259;50.214;18.620;2022-07-17T20:31:22;6.00;;;2.30;;
22677;SDS011;26259;50.214;18.620;2022-07-17T20:33:48;4.40;;;2.50;;
22677;SDS011;26259;50.214;18.620;2022-07-17T20:36:15;7.83;;;2.50;;
22677;SDS011;26259;50.214;18.620;2022-07-17T20:38:41;3.63;;;2.70;;
22677;SDS011;26259;50.214;18.620;2022-07-17T20:41:07;5.43;;;2.37;;
22677;SDS011;26259;50.214;18.620;2022-07-17T20:43:32;3.70;;;2.20;;
22677;SDS011;26259;50.214;18.620;2022-07-17T20:45:59;4.30;;;2.33;;
22677;SDS011;26259;50.214;18.620;2022-07-17T20:48:25;3.63;;;2.60;;
22677;SDS011;26259;50.214;18.620;2022-07-17T20:50:51;3.87;;;2.23;;
22677;SDS011;26259;50.214;18.620;2022-07-17T20:53:16;4.33;;;2.53;;
22677;SDS011;26259;50.214;18.620;2022-07-17T20:55:44;6.83;;;2.57;;
22677;SDS011;26259;50.214;18.620;2022-07-17T20:58:10;5.87;;;2.60;;
22677;SDS011;26259;50.214;18.620;2022-07-17T21:00:36;3.63;;;2.40;;
22677;SDS011;26259;50.214;18.620;2022-07-17T21:03:03;5.97;;;3.10;;
22677;SDS011;26259;50.214;18.620;2022-07-17T21:05:30;5.80;;;2.37;;
22677;SDS011;26259;50.214;18.620;2022-07-17T21:07:56;8.17;;;2.67;;
22677;SDS011;26259;50.214;18.620;2022-07-17T21:10:21;6.13;;;2.80;;
22677;SDS011;26259;50.214;18.620;2022-07-17T21:12:47;5.23;;;2.73;;
22677;SDS011;26259;50.214;18.620;2022-07-17T21:15:12;8.87;;;3.47;;
22677;SDS011;26259;50.214;18.620;2022-07-17T21:17:42;6.03;;;3.00;;
22677;SDS011;26259;50.214;18.620;2022-07-17T21:20:08;4.53;;;2.80;;
22677;SDS011;26259;50.214;18.620;2022-07-17T21:22:34;6.90;;;2.70;;
22677;SDS011;26259;50.214;18.620;2022-07-17T21:25:02;6.53;;;3.53;;
22677;SDS011;26259;50.214;18.620;2022-07-17T21:27:28;6.50;;;2.70;;
22677;SDS011;26259;50.214;18.620;2022-07-17T21:29:54;7.00;;;3.30;;
22677;SDS011;26259;50.214;18.620;2022-07-17T21:32:20;5.77;;;3.13;;
22677;SDS011;26259;50.214;18.620;2022-07-17T21:34:45;7.87;;;3.23;;
22677;SDS011;26259;50.214;18.620;2022-07-17T21:37:11;8.23;;;3.90;;
22677;SDS011;26259;50.214;18.620;2022-07-17T21:39:36;5.27;;;3.30;;
22677;SDS011;26259;50.214;18.620;2022-07-17T21:42:02;5.10;;;3.60;;
22677;SDS011;26259;50.214;18.620;2022-07-17T21:44:28;5.00;;;3.40;;
22677;SDS011;26259;50.214;18.620;2022-07-17T21:46:53;7.40;;;3.23;;
22677;SDS011;26259;50.214;18.620;2022-07-17T21:49:19;5.13;;;3.67;;
22677;SDS011;26259;50.214;18.620;2022-07-17T21:51:45;7.33;;;4.10;;
22677;SDS011;26259;50.214;18.620;2022-07-17T21:54:10;7.17;;;3.40;;
22677;SDS011;26259;50.214;18.620;2022-07-17T21:56:36;4.53;;;3.53;;
22677;SDS011;26259;50.214;18.620;2022-07-17T21:59:01;4.87;;;3.53;;
22677;SDS011;26259;50.214;18.620;2022-07-17T22:01:27;7.77;;;4.20;;
22677;SDS011;26259;50.214;18.620;2022-07-17T22:03:53;7.40;;;4.03;;
22677;SDS011;26259;50.214;18.620;2022-07-17T22:06:19;7.60;;;4.40;;
22677;SDS011;26259;50.214;18.620;2022-07-17T22:08:44;5.30;;;4.20;;
22677;SDS011;26259;50.214;18.620;2022-07-17T22:11:10;9.10;;;4.33;;
22677;SDS011;26259;50.214;18.620;2022-07-17T22:13:36;4.80;;;3.70;;
22677;SDS011;26259;50.214;18.620;2022-07-17T22:16:02;4.93;;;4.00;;
22677;SDS011;26259;50.214;18.620;2022-07-17T22:18:28;7.63;;;3.90;;
22677;SDS011;26259;50.214;18.620;2022-07-17T22:20:54;5.63;;;3.80;;
22677;SDS011;26259;50.214;18.620;2022-07-17T22:23:20;6.67;;;4.03;;
22677;SDS011;26259;50.214;18.620;2022-07-17T22:25:46;6.83;;;3.97;;
22677;SDS011;26259;50.214;18.620;2022-07-17T22:28:13;7.07;;;4.43;;
22677;SDS011;26259;50.214;18.620;2022-07-17T22:30:39;6.27;;;4.03;;
22677;SDS011;26259;50.214;18.620;2022-07-17T22:33:05;6.60;;;4.30;;
22677;SDS011;26259;50.214;18.620;2022-07-17T22:35:31;12.73;;;4.70;;
22677;SDS011;26259;50.214;18.620;2022-07-17T22:37:57;9.47;;;4.40;;
22677;SDS011;26259;50.214;18.620;2022-07-17T22:40:22;4.87;;;4.03;;
22677;SDS011;26259;50.214;18.620;2022-07-17T22:42:48;7.40;;;3.93;;
22677;SDS011;26259;50.214;18.620;2022-07-17T22:45:14;10.13;;;4.90;;
22677;SDS011;26259;50.214;18.620;2022-07-17T22:47:39;8.10;;;4.87;;
22677;SDS011;26259;50.214;18.620;2022-07-17T22:50:05;8.67;;;4.20;;
22677;SDS011;26259;50.214;18.620;2022-07-17T22:52:31;8.47;;;4.40;;
22677;SDS011;26259;50.214;18.620;2022-07-17T22:54:57;8.80;;;4.97;;
22677;SDS011;26259;50.214;18.620;2022-07-17T22:57:22;11.83;;;4.93;;
22677;SDS011;26259;50.214;18.620;2022-07-17T22:59:48;5.47;;;4.40;;
22677;SDS011;26259;50.214;18.620;2022-07-17T23:02:14;5.23;;;4.10;;
22677;SDS011;26259;50.214;18.620;2022-07-17T23:04:40;6.57;;;4.23;;
22677;SDS011;26259;50.214;18.620;2022-07-17T23:07:05;8.00;;;4.70;;
22677;SDS011;26259;50.214;18.620;2022-07-17T23:09:31;10.07;;;4.90;;
22677;SDS011;26259;50.214;18.620;2022-07-17T23:11:57;7.63;;;4.13;;
22677;SDS011;26259;50.214;18.620;2022-07-17T23:14:22;7.90;;;5.60;;
22677;SDS011;26259;50.214;18.620;2022-07-17T23:16:48;10.27;;;5.63;;
22677;SDS011;26259;50.214;18.620;2022-07-17T23:19:14;7.40;;;5.63;;
22677;SDS011;26259;50.214;18.620;2022-07-17T23:21:39;10.70;;;5.23;;
22677;SDS011;26259;50.214;18.620;2022-07-17T23:24:05;6.67;;;5.07;;
22677;SDS011;26259;50.214;18.620;2022-07-17T23:26:30;7.77;;;5.03;;
22677;SDS011;26259;50.214;18.620;2022-07-17T23:28:56;6.40;;;4.97;;
22677;SDS011;26259;50.214;18.620;2022-07-17T23:31:21;7.37;;;4.90;;
22677;SDS011;26259;50.214;18.620;2022-07-17T23:33:47;9.93;;;4.57;;
22677;SDS011;26259;50.214;18.620;2022-07-17T23:36:13;7.80;;;4.60;;
22677;SDS011;26259;50.214;18.620;2022-07-17T23:38:38;9.37;;;4.57;;
22677;SDS011;26259;50.214;18.620;2022-07-17T23:41:04;10.43;;;4.80;;
22677;SDS011;26259;50.214;18.620;2022-07-17T23:43:30;5.53;;;4.87;;
22677;SDS011;26259;50.214;18.620;2022-07-17T23:45:55;9.17;;;4.80;;
22677;SDS011;26259;50.214;18.620;2022-07-17T23:48:21;7.90;;;4.70;;
22677;SDS011;26259;50.214;18.620;2022-07-17T23:50:47;10.37;;;5.13;;